Time;durP1;ratioP1;P1;durP2;ratioP2;P2;SDS_P1;SDS_P2;PMS_P1;PMS_P2;Temp;Humidity;BMP_temperature;BMP_pressure;BME280_temperature;BME280_humidity;BME280_pressure;Samples;Min_cycle;Max_cycle;Signal;HPM_P1;HPM_P2
2023/11/27 00:02:08;;;;;;;7.53;2.25;;;-1.20;99.60;;;;;;5050317;28;19909;-76
2023/11/27 00:04:34;;;;;;;;;;;-1.20;99.80;;;;;;5051405;28;20094;-76
2023/11/27 00:06:59;;;;;;;3.30;1.13;;;-1.20;99.50;;;;;;5052616;28;19913;-76
2023/11/27 00:09:25;;;;;;;;;;;-1.10;99.20;;;;;;5053491;28;20434;-76
2023/11/27 00:11:51;;;;;;;4.63;1.95;;;-1.10;98.80;;;;;;5051283;28;20515;-77
2023/11/27 00:14:16;;;;;;;5.80;1.90;;;-1.00;98.90;;;;;;5052555;28;20033;-76
2023/11/27 00:16:42;;;;;;;4.97;1.70;;;-0.90;98.50;;;;;;5052430;28;20017;-76
2023/11/27 00:19:08;;;;;;;4.88;1.25;;;-0.80;98.50;;;;;;5052584;28;20032;-76
2023/11/27 00:21:34;;;;;;;5.25;1.27;;;-0.80;98.70;;;;;;5051325;28;20025;-76
2023/11/27 00:23:59;;;;;;;4.85;1.23;;;-0.80;98.70;;;;;;5051035;28;20032;-76
2023/11/27 00:26:25;;;;;;;;;;;-0.80;98.60;;;;;;5051584;28;20037;-76
2023/11/27 00:28:52;;;;;;;4.10;1.83;;;-0.80;98.50;;;;;;5052221;28;19917;-76
2023/11/27 00:31:17;;;;;;;5.63;1.77;;;-0.80;98.50;;;;;;5051001;28;20029;-76
2023/11/27 00:33:46;;;;;;;;;;;-0.70;98.00;;;;;;5051685;28;20083;-76
2023/11/27 00:36:15;;;;;;;4.40;1.45;;;-0.70;98.30;;;;;;5052723;28;19912;-76
2023/11/27 00:38:41;;;;;;;4.35;1.73;;;-0.80;98.40;;;;;;5052493;28;20035;-76
2023/11/27 00:41:06;;;;;;;;;;;-0.70;98.40;;;;;;5051232;28;20025;-76
2023/11/27 00:43:33;;;;;;;4.60;1.48;;;-0.70;98.40;;;;;;5051008;28;20503;-75
2023/11/27 00:45:59;;;;;;;4.28;1.50;;;-0.70;98.10;;;;;;5051115;28;20060;-76
2023/11/27 00:48:25;;;;;;;3.95;1.42;;;-0.70;98.00;;;;;;5051187;28;20037;-76
2023/11/27 00:50:50;;;;;;;;;;;-0.80;98.00;;;;;;5051551;28;20024;-76
2023/11/27 00:53:16;;;;;;;5.72;2.05;;;-0.70;98.00;;;;;;5051246;28;20501;-76
2023/11/27 00:55:41;;;;;;;;;;;-0.80;98.00;;;;;;5052133;28;20033;-76
2023/11/27 00:58:07;;;;;;;5.70;1.80;;;-0.80;98.20;;;;;;5051508;28;19915;-76
2023/11/27 01:00:33;;;;;;;;;;;-0.90;98.50;;;;;;5051821;28;20025;-76
2023/11/27 01:02:58;;;;;;;5.55;1.45;;;-0.90;98.70;;;;;;5051460;28;19931;-76
2023/11/27 01:05:24;;;;;;;4.88;1.60;;;-0.90;98.80;;;;;;5051321;28;20139;-75
2023/11/27 01:07:50;;;;;;;;;;;-1.00;99.10;;;;;;5052078;28;20098;-76
2023/11/27 01:10:17;;;;;;;5.40;1.60;;;-1.00;99.40;;;;;;5053001;28;20444;-76
2023/11/27 01:12:43;;;;;;;5.15;1.73;;;-1.00;99.30;;;;;;5052537;28;20048;-76
2023/11/27 01:15:12;;;;;;;6.15;1.73;;;-1.10;99.80;;;;;;5051357;28;20033;-76
2023/11/27 01:17:38;;;;;;;4.60;1.50;;;-1.20;99.80;;;;;;5051914;28;20084;-76
2023/11/27 01:20:08;;;;;;;6.40;1.75;;;-1.10;99.90;;;;;;5052263;28;20036;-76
2023/11/27 01:22:35;;;;;;;5.88;1.85;;;-1.00;99.90;;;;;;5050634;28;20021;-76
2023/11/27 01:25:01;;;;;;;4.15;1.70;;;-1.00;99.90;;;;;;5049817;28;20041;-76
2023/11/27 01:27:27;;;;;;;8.27;2.40;;;-1.00;99.90;;;;;;5050365;28;20095;-76
2023/11/27 01:29:52;;;;;;;;;;;-1.00;99.90;;;;;;5050570;28;20029;-75
2023/11/27 01:32:18;;;;;;;6.90;2.25;;;-1.00;99.90;;;;;;5051831;28;19908;-76
2023/11/27 01:34:43;;;;;;;;;;;-1.00;99.90;;;;;;5052484;28;20088;-76
2023/11/27 01:37:10;;;;;;;5.40;1.77;;;-1.10;99.90;;;;;;5053159;28;19912;-77
2023/11/27 01:39:36;;;;;;;4.80;2.00;;;-1.10;99.90;;;;;;5051796;28;20033;-76
2023/11/27 01:42:03;;;;;;;5.15;1.75;;;-1.20;99.90;;;;;;5050968;28;20028;-76
2023/11/27 01:44:28;;;;;;;6.03;2.03;;;-1.10;99.90;;;;;;5049950;28;20081;-76
2023/11/27 01:46:55;;;;;;;;;;;-1.10;99.90;;;;;;5051724;28;20562;-76
2023/11/27 01:49:20;;;;;;;5.00;1.73;;;-1.10;99.90;;;;;;5050805;28;19912;-76
2023/11/27 01:51:46;;;;;;;;;;;-1.10;99.90;;;;;;5050206;28;20029;-76
2023/11/27 01:54:12;;;;;;;3.78;1.40;;;-1.20;99.90;;;;;;5049767;28;19912;-76
2023/11/27 01:56:42;;;;;;;3.75;1.60;;;-1.20;99.90;;;;;;5050230;28;20474;-75
2023/11/27 01:59:07;;;;;;;6.03;2.33;;;-1.20;99.90;;;;;;5048577;28;20540;-76
2023/11/27 02:01:33;;;;;;;;;;;-1.20;99.90;;;;;;5049212;28;20033;-75
2023/11/27 02:04:00;;;;;;;5.68;1.83;;;-1.20;99.90;;;;;;5048819;28;19939;-76
2023/11/27 02:06:25;;;;;;;4.20;1.73;;;-1.20;99.90;;;;;;5048549;28;20525;-76
2023/11/27 02:08:51;;;;;;;;;;;-1.20;99.90;;;;;;5049013;28;20116;-76
2023/11/27 02:11:18;;;;;;;4.55;1.98;;;-1.20;99.90;;;;;;5049976;28;19904;-76
2023/11/27 02:13:45;;;;;;;5.70;2.13;;;-1.20;99.90;;;;;;5050198;28;20043;-76
2023/11/27 02:16:11;;;;;;;3.53;1.40;;;-1.20;99.90;;;;;;5049213;28;20009;-76
2023/11/27 02:18:36;;;;;;;;;;;-1.10;99.90;;;;;;5050331;28;20098;-76
2023/11/27 02:21:03;;;;;;;4.55;1.88;;;-1.10;99.90;;;;;;5048233;28;19972;-76
2023/11/27 02:23:28;;;;;;;6.10;2.42;;;-1.10;99.90;;;;;;5050257;28;20059;-76
2023/11/27 02:25:54;;;;;;;;;;;-1.10;99.90;;;;;;5052188;28;20029;-76
2023/11/27 02:28:19;;;;;;;12.40;4.45;;;-1.10;99.90;;;;;;5053040;28;19916;-76
2023/11/27 02:30:45;;;;;;;;;;;-1.00;99.90;;;;;;5054696;28;20462;-75
2023/11/27 02:33:10;;;;;;;13.52;5.50;;;-1.10;99.90;;;;;;5053025;28;20305;-76
2023/11/27 02:35:36;;;;;;;;;;;-1.00;99.90;;;;;;5053329;28;20049;-76
2023/11/27 02:38:02;;;;;;;12.98;5.60;;;-1.00;99.90;;;;;;5054075;28;19955;-76
2023/11/27 02:40:28;;;;;;;;;;;-0.90;99.90;;;;;;5054631;28;20025;-75
2023/11/27 02:42:54;;;;;;;11.43;3.72;;;-1.00;99.90;;;;;;5052823;28;19917;-76
2023/11/27 02:45:19;;;;;;;;;;;-0.90;99.90;;;;;;5054669;28;20036;-76
2023/11/27 02:47:45;;;;;;;10.30;3.20;;;-1.00;99.90;;;;;;5053068;28;20412;-76
2023/11/27 02:50:11;;;;;;;;;;;-1.00;99.90;;;;;;5053590;28;20033;-76
2023/11/27 02:52:36;;;;;;;6.43;2.35;;;-1.00;99.90;;;;;;5054526;28;19905;-76
2023/11/27 02:55:02;;;;;;;8.77;3.42;;;-1.00;99.90;;;;;;5052217;28;20416;-76
2023/11/27 02:57:27;;;;;;;;;;;-0.90;99.90;;;;;;5054879;28;20021;-76
2023/11/27 02:59:53;;;;;;;9.13;3.78;;;-1.00;99.90;;;;;;5052887;28;19912;-76
2023/11/27 03:02:20;;;;;;;;;;;-1.00;99.90;;;;;;5053193;28;20025;-76
2023/11/27 03:04:46;;;;;;;5.50;2.20;;;-1.00;99.90;;;;;;5052718;28;19947;-76
2023/11/27 03:07:11;;;;;;;;;;;-1.00;99.90;;;;;;5054690;28;20127;-76
2023/11/27 03:09:37;;;;;;;5.80;2.15;;;-0.90;99.90;;;;;;5054530;28;20421;-76
2023/11/27 03:12:06;;;;;;;5.82;2.17;;;-1.00;99.90;;;;;;5053267;28;20504;-76
2023/11/27 03:14:32;;;;;;;4.32;1.90;;;-1.00;99.90;;;;;;5054698;28;20060;-76
2023/11/27 03:16:57;;;;;;;;;;;-1.00;99.90;;;;;;5054542;28;20520;-76
2023/11/27 03:19:23;;;;;;;4.72;1.60;;;-1.00;99.90;;;;;;5053238;28;20404;-76
2023/11/27 03:21:48;;;;;;;;;;;-1.00;99.90;;;;;;5053535;28;20033;-76
2023/11/27 03:24:14;;;;;;;4.32;2.05;;;-0.90;99.90;;;;;;5054470;28;20533;-76
2023/11/27 03:26:40;;;;;;;7.78;2.88;;;-0.90;99.90;;;;;;5053081;28;20033;-76
2023/11/27 03:29:06;;;;;;;;;;;-0.90;99.90;;;;;;5053388;28;20037;-76
2023/11/27 03:31:32;;;;;;;8.85;3.78;;;-0.90;99.90;;;;;;5053461;28;19912;-76
2023/11/27 03:33:58;;;;;;;4.85;2.58;;;-0.90;99.90;;;;;;5053454;28;20021;-76
2023/11/27 03:36:23;;;;;;;;;;;-0.80;99.90;;;;;;5055335;28;20041;-76
2023/11/27 03:38:49;;;;;;;2.60;1.38;;;-0.80;99.90;;;;;;5054719;28;19905;-76
2023/11/27 03:41:19;;;;;;;5.15;1.77;;;-0.80;99.90;;;;;;5055539;28;20163;-76
2023/11/27 03:43:44;;;;;;;6.65;3.00;;;-0.70;99.90;;;;;;5055292;28;20063;-77
2023/11/27 03:46:10;;;;;;;;;;;-0.60;99.90;;;;;;5054223;28;20044;-76
2023/11/27 03:48:37;;;;;;;8.82;2.22;;;-0.60;99.90;;;;;;5052707;28;20015;-76
2023/11/27 03:51:03;;;;;;;7.88;2.60;;;-0.60;99.90;;;;;;5051835;28;20505;-76
2023/11/27 03:53:30;;;;;;;8.52;2.28;;;-0.60;99.90;;;;;;5052446;28;20025;-76
2023/11/27 03:55:55;;;;;;;7.40;2.30;;;-0.60;99.90;;;;;;5053430;28;20049;-76
2023/11/27 03:58:22;;;;;;;;;;;-0.50;99.90;;;;;;5052783;28;20074;-75
2023/11/27 04:00:47;;;;;;;3.00;1.38;;;-0.50;99.90;;;;;;5053443;28;19909;-76
2023/11/27 04:03:13;;;;;;;;;;;-0.50;99.90;;;;;;5052211;28;20123;-75
2023/11/27 04:05:39;;;;;;;5.00;1.80;;;-0.50;99.90;;;;;;5052289;28;19915;-76
2023/11/27 04:08:05;;;;;;;3.85;1.52;;;-0.40;99.90;;;;;;5052207;28;20037;-76
2023/11/27 04:10:30;;;;;;;;;;;-0.50;99.90;;;;;;5054044;28;20016;-76
2023/11/27 04:12:56;;;;;;;4.90;1.70;;;-0.40;99.90;;;;;;5051840;28;19905;-75
2023/11/27 04:15:22;;;;;;;;;;;-0.40;99.90;;;;;;5052421;28;20041;-77
2023/11/27 04:17:48;;;;;;;3.33;1.75;;;-0.40;99.90;;;;;;5053237;28;20381;-76
2023/11/27 04:20:14;;;;;;;;;;;-0.40;99.90;;;;;;5053541;28;20032;-75
2023/11/27 04:22:40;;;;;;;2.92;1.40;;;-0.40;99.90;;;;;;5053070;28;20444;-75
2023/11/27 04:25:06;;;;;;;;;;;-0.30;99.90;;;;;;5054461;28;20071;-76
2023/11/27 04:27:32;;;;;;;5.05;1.30;;;-0.30;99.90;;;;;;5051292;28;19931;-76
2023/11/27 04:29:59;;;;;;;;;;;-0.30;99.90;;;;;;5052180;28;20017;-76
2023/11/27 04:32:25;;;;;;;4.20;1.30;;;-0.30;99.90;;;;;;5052993;28;19909;-76
2023/11/27 04:34:50;;;;;;;;;;;-0.30;99.90;;;;;;5051856;28;20497;-76
2023/11/27 04:37:16;;;;;;;4.10;1.17;;;-0.30;99.90;;;;;;5053475;28;19927;-76
2023/11/27 04:39:42;;;;;;;;;;;-0.30;99.90;;;;;;5051857;28;20029;-76
2023/11/27 04:42:09;;;;;;;3.33;1.40;;;-0.30;99.90;;;;;;5051531;28;19912;-76
2023/11/27 04:44:35;;;;;;;4.15;1.48;;;-0.30;99.90;;;;;;5051366;28;20543;-76
2023/11/27 04:47:01;;;;;;;;;;;-0.30;99.90;;;;;;5052061;28;20044;-76
2023/11/27 04:49:26;;;;;;;3.47;1.65;;;-0.30;99.90;;;;;;5051853;28;20396;-76
2023/11/27 04:51:52;;;;;;;;;;;-0.30;99.90;;;;;;5052958;28;20105;-76
2023/11/27 04:54:17;;;;;;;4.65;1.80;;;-0.30;99.90;;;;;;5052695;28;19955;-75
2023/11/27 04:56:44;;;;;;;;;;;-0.30;99.90;;;;;;5053943;28;20090;-76
2023/11/27 04:59:10;;;;;;;4.10;1.77;;;-0.30;99.90;;;;;;5053344;28;19963;-76
2023/11/27 05:01:35;;;;;;;;;;;-0.30;99.90;;;;;;5052472;28;20582;-76
2023/11/27 05:04:01;;;;;;;5.20;1.75;;;-0.30;99.90;;;;;;5052293;28;19908;-76
2023/11/27 05:06:27;;;;;;;;;;;-0.20;99.90;;;;;;5052793;28;20040;-76
2023/11/27 05:08:52;;;;;;;5.05;2.00;;;-0.20;99.90;;;;;;5052354;28;19916;-76
2023/11/27 05:11:19;;;;;;;;;;;-0.20;99.90;;;;;;5052472;28;20049;-75
2023/11/27 05:13:45;;;;;;;7.50;2.38;;;-0.20;99.90;;;;;;5050618;28;20602;-76
2023/11/27 05:16:10;;;;;;;5.60;2.33;;;-0.10;99.90;;;;;;5051940;28;20057;-77
2023/11/27 05:18:36;;;;;;;;;;;-0.10;99.90;;;;;;5051331;28;20067;-75
2023/11/27 05:21:02;;;;;;;7.60;2.25;;;-0.10;99.90;;;;;;5051936;28;20385;-76
2023/11/27 05:23:27;;;;;;;;;;;-0.10;99.90;;;;;;5051177;28;20024;-75
2023/11/27 05:25:53;;;;;;;5.25;2.80;;;-0.10;99.90;;;;;;5050599;28;20015;-76
2023/11/27 05:28:18;;;;;;;;;;;-0.10;99.90;;;;;;5051888;28;20405;-76
2023/11/27 05:30:44;;;;;;;5.95;3.35;;;-0.10;99.90;;;;;;5050976;28;19912;-76
2023/11/27 05:33:09;;;;;;;;;;;-0.10;99.90;;;;;;5052901;28;20025;-75
2023/11/27 05:35:35;;;;;;;6.20;3.65;;;-0.10;99.90;;;;;;5052792;28;19940;-76
2023/11/27 05:38:01;;;;;;;;;;;-0.10;99.90;;;;;;5052860;28;20027;-75
2023/11/27 05:40:27;;;;;;;7.93;3.95;;;-0.10;99.90;;;;;;5051074;28;19905;-76
2023/11/27 05:42:54;;;;;;;10.27;4.93;;;-0.10;99.90;;;;;;5049767;28;20049;-75
2023/11/27 05:45:20;;;;;;;7.90;4.78;;;-0.10;99.90;;;;;;5051340;28;20021;-75
2023/11/27 05:47:46;;;;;;;6.82;3.90;;;0.00;99.90;;;;;;5051129;28;20075;-77
2023/11/27 05:50:14;;;;;;;;;;;-0.10;99.90;;;;;;5053342;28;20029;-77
2023/11/27 05:52:40;;;;;;;8.85;4.22;;;-0.10;99.90;;;;;;5051175;28;19915;-76
2023/11/27 05:55:07;;;;;;;7.20;3.45;;;-0.10;99.90;;;;;;5050606;28;20025;-76
2023/11/27 05:57:34;;;;;;;7.65;4.57;;;-0.10;99.90;;;;;;5048976;28;20037;-76
2023/11/27 06:00:01;;;;;;;7.60;4.53;;;-0.10;99.90;;;;;;5048797;28;20036;-76
2023/11/27 06:02:26;;;;;;;9.90;4.45;;;-0.10;99.90;;;;;;5050269;28;20036;-76
2023/11/27 06:04:52;;;;;;;;;;;-0.10;99.90;;;;;;5048868;28;20021;-76
2023/11/27 06:07:19;;;;;;;6.68;4.03;;;-0.10;99.90;;;;;;5050823;28;20011;-76
2023/11/27 06:09:45;;;;;;;6.93;3.72;;;-0.10;99.90;;;;;;5049963;28;20078;-77
2023/11/27 06:12:10;;;;;;;;;;;0.00;99.90;;;;;;5050682;28;20029;-75
2023/11/27 06:14:36;;;;;;;6.38;3.53;;;0.00;99.90;;;;;;5049200;28;19908;-76
2023/11/27 06:17:01;;;;;;;;;;;0.00;99.90;;;;;;5049564;28;20124;-76
2023/11/27 06:19:27;;;;;;;7.15;3.92;;;0.00;99.90;;;;;;5049275;28;19962;-76
2023/11/27 06:21:52;;;;;;;;;;;0.00;99.90;;;;;;5049612;28;20029;-77
2023/11/27 06:24:18;;;;;;;9.25;4.43;;;0.00;99.90;;;;;;5050481;28;19992;-75
2023/11/27 06:26:44;;;;;;;;;;;0.00;99.90;;;;;;5049774;28;20355;-76
2023/11/27 06:29:09;;;;;;;9.88;5.50;;;0.20;99.90;;;;;;5051364;28;19904;-76
2023/11/27 06:31:35;;;;;;;;;;;0.10;99.90;;;;;;5050117;28;20385;-76
2023/11/27 06:34:01;;;;;;;10.18;4.75;;;0.20;99.90;;;;;;5050645;28;19936;-76
2023/11/27 06:36:27;;;;;;;8.80;5.07;;;0.20;99.90;;;;;;5050726;28;20021;-76
2023/11/27 06:38:52;;;;;;;;;;;0.30;99.90;;;;;;5051555;28;20032;-76
2023/11/27 06:41:18;;;;;;;15.88;4.95;;;0.30;99.90;;;;;;5050063;28;19908;-76
2023/11/27 06:43:43;;;;;;;;;;;0.30;99.90;;;;;;5051242;28;20048;-77
2023/11/27 06:46:14;;;;;;;8.25;4.75;;;0.40;99.90;;;;;;5051309;28;20015;-77
2023/11/27 06:48:39;;;;;;;11.40;6.22;;;0.40;99.90;;;;;;5051768;28;20119;-76
2023/11/27 06:51:05;;;;;;;;;;;0.40;99.90;;;;;;5050449;28;20167;-76
2023/11/27 06:53:31;;;;;;;6.65;4.18;;;0.40;99.90;;;;;;5050036;28;19904;-75
2023/11/27 06:55:56;;;;;;;;;;;0.40;99.90;;;;;;5052153;28;20079;-76
2023/11/27 06:58:22;;;;;;;8.52;4.70;;;0.40;99.90;;;;;;5050118;28;20609;-77
2023/11/27 07:00:47;;;;;;;;;;;0.40;99.90;;;;;;5052353;28;20014;-76
2023/11/27 07:03:13;;;;;;;7.53;4.40;;;0.30;99.90;;;;;;5051801;28;20343;-75
2023/11/27 07:05:38;;;;;;;;;;;0.40;99.90;;;;;;5052515;28;20025;-77
2023/11/27 07:08:04;;;;;;;7.00;4.25;;;0.40;99.90;;;;;;5050678;28;19916;-76
2023/11/27 07:10:29;;;;;;;;;;;0.40;99.90;;;;;;5053239;28;20119;-76
2023/11/27 07:12:56;;;;;;;10.00;4.82;;;0.50;99.90;;;;;;5053312;28;19909;-76
2023/11/27 07:15:21;;;;;;;9.48;4.53;;;0.40;99.90;;;;;;5055824;28;20032;-76
2023/11/27 07:17:47;;;;;;;;;;;0.40;99.90;;;;;;5056784;28;20421;-76
2023/11/27 07:20:17;;;;;;;10.50;6.15;;;0.40;99.90;;;;;;5054945;28;19909;-76
2023/11/27 07:22:46;;;;;;;9.07;5.32;;;0.40;99.90;;;;;;5054063;28;20028;-76
2023/11/27 07:25:14;;;;;;;8.07;4.75;;;0.40;99.90;;;;;;5055566;28;20416;-76
2023/11/27 07:27:40;;;;;;;8.82;5.10;;;0.40;99.90;;;;;;5056478;28;20033;-77
2023/11/27 07:30:07;;;;;;;;;;;0.50;99.90;;;;;;5056882;28;20021;-77
2023/11/27 07:32:32;;;;;;;9.07;4.40;;;0.50;99.90;;;;;;5055628;28;19904;-76
2023/11/27 07:34:58;;;;;;;;;;;0.50;99.90;;;;;;5056328;28;20494;-76
2023/11/27 07:37:24;;;;;;;9.43;4.90;;;0.50;99.90;;;;;;5055108;28;19915;-76
2023/11/27 07:39:50;;;;;;;;;;;0.60;99.90;;;;;;5055993;28;20056;-75
2023/11/27 07:42:15;;;;;;;9.20;5.35;;;0.50;99.90;;;;;;5054531;28;20433;-76
2023/11/27 07:44:43;;;;;;;;;;;0.60;99.90;;;;;;5055600;28;20068;-76
2023/11/27 07:47:09;;;;;;;8.82;5.07;;;0.60;99.90;;;;;;5055073;28;19971;-76
2023/11/27 07:49:35;;;;;;;11.20;5.35;;;0.60;99.90;;;;;;5056004;28;20371;-76
2023/11/27 07:52:01;;;;;;;9.25;4.75;;;0.70;99.90;;;;;;5056806;28;20032;-75
2023/11/27 07:54:27;;;;;;;;;;;0.70;99.90;;;;;;5054446;28;20032;-77
2023/11/27 07:56:53;;;;;;;10.27;6.55;;;0.70;99.90;;;;;;5054882;28;20354;-76
2023/11/27 07:59:19;;;;;;;;;;;0.80;99.90;;;;;;5052574;28;20493;-76
2023/11/27 08:01:45;;;;;;;11.23;6.30;;;0.70;99.90;;;;;;5052553;28;20389;-76
2023/11/27 08:04:11;;;;;;;8.90;5.68;;;0.80;99.90;;;;;;5051688;28;20123;-76
2023/11/27 08:06:39;;;;;;;9.95;6.68;;;0.90;99.90;;;;;;5052286;28;20041;-76
2023/11/27 08:09:05;;;;;;;10.13;6.25;;;0.90;99.90;;;;;;5050756;28;20028;-76
2023/11/27 08:11:32;;;;;;;13.18;7.22;;;1.00;99.90;;;;;;5052236;28;20079;-76
2023/11/27 08:13:58;;;;;;;10.52;6.05;;;0.90;99.90;;;;;;5050810;28;20108;-77
2023/11/27 08:16:25;;;;;;;;;;;1.00;99.90;;;;;;5051367;28;20120;-76
2023/11/27 08:18:51;;;;;;;14.75;7.47;;;1.00;99.90;;;;;;5050794;28;20353;-75
2023/11/27 08:21:17;;;;;;;;;;;1.00;99.90;;;;;;5051502;28;20097;-76
2023/11/27 08:23:43;;;;;;;12.40;7.13;;;1.10;99.90;;;;;;5051562;28;19911;-76
2023/11/27 08:26:08;;;;;;;;;;;1.10;99.90;;;;;;5051945;28;20082;-76
2023/11/27 08:28:35;;;;;;;35.33;20.92;;;1.20;99.90;;;;;;5051292;28;20421;-76
2023/11/27 08:31:00;;;;;;;20.42;10.75;;;1.20;99.90;;;;;;5050937;28;20025;-76
2023/11/27 08:33:26;;;;;;;;;;;1.20;99.90;;;;;;5052956;28;20299;-76
2023/11/27 08:35:52;;;;;;;20.13;11.15;;;1.40;99.90;;;;;;5052038;28;19935;-76
2023/11/27 08:38:18;;;;;;;18.05;11.13;;;1.20;99.90;;;;;;5050153;28;20025;-75
2023/11/27 08:40:43;;;;;;;;;;;1.30;99.90;;;;;;5052007;28;20175;-76
2023/11/27 08:43:09;;;;;;;18.65;10.70;;;1.50;99.90;;;;;;5050353;28;19971;-77
2023/11/27 08:45:34;;;;;;;;;;;1.60;99.90;;;;;;5052642;28;20035;-76
2023/11/27 08:48:00;;;;;;;15.60;7.82;;;1.80;99.90;;;;;;5051025;28;20449;-75
2023/11/27 08:50:29;;;;;;;;;;;1.80;99.90;;;;;;5052544;28;20078;-75
2023/11/27 08:52:56;;;;;;;11.82;6.07;;;1.90;99.90;;;;;;5051983;28;19988;-76
2023/11/27 08:55:28;;;;;;;12.10;6.55;;;1.90;99.90;;;;;;5051303;28;20036;-76
2023/11/27 08:57:54;;;;;;;10.45;6.18;;;1.90;99.90;;;;;;5051959;28;20538;-76
2023/11/27 09:00:20;;;;;;;16.58;8.68;;;2.00;99.90;;;;;;5052000;28;20379;-76
2023/11/27 09:02:46;;;;;;;;;;;2.00;99.90;;;;;;5051391;28;20036;-76
2023/11/27 09:05:12;;;;;;;14.38;8.57;;;1.90;99.90;;;;;;5050983;28;19909;-76
2023/11/27 09:07:38;;;;;;;11.07;6.43;;;1.90;99.90;;;;;;5050400;28;20035;-76
2023/11/27 09:10:04;;;;;;;;;;;1.90;99.90;;;;;;5052131;28;20119;-76
2023/11/27 09:12:31;;;;;;;13.17;7.60;;;1.90;99.90;;;;;;5052466;28;19908;-76
2023/11/27 09:14:57;;;;;;;15.13;8.43;;;1.80;99.90;;;;;;5050492;28;20025;-76
2023/11/27 09:17:23;;;;;;;13.60;8.43;;;1.90;99.90;;;;;;5051067;28;20032;-76
2023/11/27 09:19:48;;;;;;;;;;;1.80;99.90;;;;;;5051831;28;20025;-76
2023/11/27 09:22:15;;;;;;;12.00;6.80;;;1.80;99.90;;;;;;5052352;28;19920;-76
2023/11/27 09:24:41;;;;;;;10.90;6.60;;;1.70;99.90;;;;;;5051023;28;20029;-76
2023/11/27 09:27:06;;;;;;;13.30;6.43;;;1.90;99.90;;;;;;5050422;28;20935;-75
2023/11/27 09:29:33;;;;;;;;;;;1.90;99.90;;;;;;5050174;28;20029;-75
2023/11/27 09:31:59;;;;;;;10.55;5.68;;;2.00;99.90;;;;;;5051426;28;19971;-75
2023/11/27 09:34:27;;;;;;;9.80;6.18;;;2.10;99.90;;;;;;5049930;28;20036;-76
2023/11/27 09:36:53;;;;;;;9.45;6.10;;;2.10;99.90;;;;;;5050295;28;20033;-76
2023/11/27 09:39:18;;;;;;;;;;;2.20;99.90;;;;;;5049782;28;20029;-75
2023/11/27 09:41:44;;;;;;;10.65;6.35;;;2.10;99.90;;;;;;5050906;28;20400;-76
2023/11/27 09:44:12;;;;;;;;;;;2.10;99.90;;;;;;5050263;28;20143;-76
2023/11/27 09:46:44;;;;;;;14.27;6.63;;;2.10;99.90;;;;;;5050871;28;19958;-76
2023/11/27 09:49:16;;;;;;;9.05;6.07;;;2.10;99.90;;;;;;5050506;28;20078;-76
2023/11/27 09:51:46;;;;;;;11.65;6.40;;;2.10;99.90;;;;;;5052667;28;20036;-77
2023/11/27 09:54:14;;;;;;;10.25;6.25;;;2.10;99.90;;;;;;5051856;28;20029;-76
2023/11/27 09:56:41;;;;;;;12.45;7.18;;;2.20;99.90;;;;;;5052819;28;20036;-76
2023/11/27 09:59:08;;;;;;;11.93;7.25;;;2.20;99.90;;;;;;5052978;28;20032;-75
2023/11/27 10:01:35;;;;;;;15.75;7.32;;;2.20;99.90;;;;;;5050874;28;20512;-77
2023/11/27 10:04:06;;;;;;;16.95;8.63;;;2.10;99.90;;;;;;5049178;28;20025;-76
2023/11/27 10:06:41;;;;;;;14.95;7.25;;;2.10;99.90;;;;;;5049384;28;20099;-76
2023/11/27 10:09:13;;;;;;;13.55;7.50;;;2.10;99.90;;;;;;5050791;28;20032;-76
2023/11/27 10:11:40;;;;;;;13.35;8.38;;;2.10;99.90;;;;;;5051063;28;20019;-77
2023/11/27 10:14:10;;;;;;;15.27;8.35;;;2.20;99.90;;;;;;5049930;28;20052;-76
2023/11/27 10:16:39;;;;;;;12.80;7.75;;;2.20;99.90;;;;;;5048893;28;20082;-78
2023/11/27 10:19:13;;;;;;;14.25;8.38;;;2.20;99.90;;;;;;5049358;28;20087;-77
2023/11/27 10:21:39;;;;;;;12.75;8.45;;;2.40;99.90;;;;;;5050125;28;20045;-76
2023/11/27 10:24:10;;;;;;;;;;;2.50;99.90;;;;;;5051027;28;20618;-76
2023/11/27 10:26:40;;;;;;;14.45;8.88;;;2.40;99.90;;;;;;5049226;28;19916;-77
2023/11/27 10:29:09;;;;;;;16.60;8.25;;;2.40;99.90;;;;;;5048172;28;20106;-76
2023/11/27 10:31:40;;;;;;;13.30;8.52;;;2.50;99.90;;;;;;5049509;28;20051;-77
2023/11/27 10:34:07;;;;;;;12.88;8.25;;;2.60;99.90;;;;;;5048945;28;20108;-75
2023/11/27 10:36:35;;;;;;;13.90;8.38;;;2.70;99.90;;;;;;5050313;28;20033;-76
2023/11/27 10:39:15;;;;;;;14.45;8.52;;;2.70;99.90;;;;;;5049509;28;20106;-75
2023/11/27 10:41:44;;;;;;;16.02;8.52;;;2.70;99.90;;;;;;5050118;28;20405;-76
2023/11/27 10:44:12;;;;;;;13.18;8.02;;;2.80;99.90;;;;;;5049207;28;20065;-76
2023/11/27 10:46:40;;;;;;;22.75;11.73;;;2.80;99.90;;;;;;5049859;28;20552;-76
2023/11/27 10:49:07;;;;;;;51.28;26.27;;;2.80;99.90;;;;;;5053294;28;20033;-76
2023/11/27 10:51:34;;;;;;;24.08;13.48;;;2.80;99.90;;;;;;5054931;28;20033;-75
2023/11/27 10:54:00;;;;;;;56.85;27.85;;;2.80;99.90;;;;;;5052388;28;20037;-75
2023/11/27 10:56:33;;;;;;;41.00;22.27;;;2.90;99.90;;;;;;5053759;28;20021;-76
2023/11/27 10:59:06;;;;;;;24.48;14.52;;;2.90;99.90;;;;;;5053525;28;20048;-76
2023/11/27 11:01:40;;;;;;;37.13;22.55;;;2.90;99.90;;;;;;5056188;28;20052;-76
2023/11/27 11:04:11;;;;;;;18.98;10.02;;;2.90;99.90;;;;;;5052870;28;20051;-75
2023/11/27 11:06:46;;;;;;;12.32;9.05;;;3.00;99.90;;;;;;5053329;28;20086;-76
2023/11/27 11:09:16;;;;;;;13.20;7.97;;;3.00;99.90;;;;;;5052491;28;20028;-76
2023/11/27 11:11:47;;;;;;;13.38;7.60;;;3.00;99.90;;;;;;5053781;28;20021;-76
2023/11/27 11:14:15;;;;;;;13.60;7.53;;;3.00;99.90;;;;;;5052682;28;20025;-76
2023/11/27 11:17:07;;;;;;;13.88;7.93;;;3.00;99.90;;;;;;5053598;28;20083;-76
2023/11/27 11:19:54;;;;;;;14.60;8.88;;;2.90;99.90;;;;;;5054474;28;20021;-76
2023/11/27 11:22:45;;;;;;;18.73;8.85;;;2.90;99.90;;;;;;5052772;28;20025;-77
2023/11/27 11:25:19;;;;;;;16.60;8.65;;;2.80;99.90;;;;;;5053812;28;20075;-76
2023/11/27 11:28:05;;;;;;;14.20;8.45;;;2.80;99.90;;;;;;5052395;28;20471;-75
2023/11/27 11:30:32;;;;;;;12.63;7.93;;;2.70;99.90;;;;;;5052494;28;20021;-76
2023/11/27 11:32:57;;;;;;;15.38;7.35;;;2.70;99.90;;;;;;5052919;28;20498;-77
2023/11/27 11:35:26;;;;;;;;;;;2.70;99.90;;;;;;5054048;28;20123;-76
2023/11/27 11:37:52;;;;;;;17.42;7.35;;;2.70;99.90;;;;;;5050686;28;19913;-75
2023/11/27 11:40:18;;;;;;;;;;;2.70;99.90;;;;;;5053209;28;20063;-75
2023/11/27 11:42:44;;;;;;;16.20;9.45;;;2.60;99.90;;;;;;5052354;28;20301;-76
2023/11/27 11:45:25;;;;;;;15.63;8.60;;;2.70;99.90;;;;;;5052785;28;20032;-75
2023/11/27 11:47:54;;;;;;;16.23;9.85;;;2.70;99.90;;;;;;5052124;28;20037;-75
2023/11/27 11:50:25;;;;;;;26.58;15.85;;;2.70;99.90;;;;;;5053785;28;20024;-75
2023/11/27 11:52:53;;;;;;;16.45;9.80;;;2.70;99.90;;;;;;5053913;28;20775;-76
2023/11/27 11:55:26;;;;;;;18.17;9.38;;;2.70;99.90;;;;;;5054643;28;20375;-76
2023/11/27 11:57:58;;;;;;;15.27;8.25;;;2.70;99.90;;;;;;5053434;28;20075;-76
2023/11/27 12:00:24;;;;;;;13.70;8.43;;;2.70;99.90;;;;;;5053109;28;20044;-76
2023/11/27 12:02:54;;;;;;;;;;;2.70;99.90;;;;;;5052899;28;20052;-75
2023/11/27 12:05:23;;;;;;;12.13;8.38;;;2.70;99.90;;;;;;5054551;28;19999;-77
2023/11/27 12:07:49;;;;;;;13.48;9.10;;;2.70;99.90;;;;;;5054875;28;20037;-76
2023/11/27 12:10:17;;;;;;;12.15;7.55;;;2.60;99.90;;;;;;5055094;28;20025;-77
2023/11/27 12:12:52;;;;;;;12.15;8.25;;;2.70;99.90;;;;;;5054735;28;20413;-76
2023/11/27 12:15:19;;;;;;;12.35;7.43;;;2.70;99.90;;;;;;5053139;28;20043;-76
2023/11/27 12:17:49;;;;;;;11.38;7.60;;;2.70;99.90;;;;;;5051245;28;20112;-76
2023/11/27 12:20:21;;;;;;;13.02;7.18;;;2.70;99.90;;;;;;5051293;28;20017;-76
2023/11/27 12:22:50;;;;;;;14.70;8.13;;;2.70;99.90;;;;;;5052584;28;20532;-76
2023/11/27 12:25:19;;;;;;;19.55;9.65;;;2.70;99.90;;;;;;5051543;28;20405;-77
2023/11/27 12:27:47;;;;;;;28.90;16.25;;;2.80;99.90;;;;;;5052462;28;20076;-76
2023/11/27 12:30:32;;;;;;;46.47;24.73;;;2.80;99.90;;;;;;5052373;28;20025;-75
2023/11/27 12:32:57;;;;;;;19.88;10.38;;;2.80;99.90;;;;;;5052492;28;20037;-76
2023/11/27 12:35:26;;;;;;;;;;;2.80;99.90;;;;;;5051765;28;20071;-75
2023/11/27 12:37:53;;;;;;;16.25;10.05;;;2.80;99.90;;;;;;5052438;28;20034;-76
2023/11/27 12:40:20;;;;;;;14.73;7.28;;;2.80;99.90;;;;;;5052122;28;20029;-76
2023/11/27 12:42:51;;;;;;;13.02;7.22;;;2.90;99.90;;;;;;5050823;28;20460;-76
2023/11/27 12:45:21;;;;;;;11.45;5.90;;;2.90;99.90;;;;;;5050647;28;20802;-75
2023/11/27 12:47:51;;;;;;;8.60;5.53;;;2.80;99.90;;;;;;5051724;28;20053;-76
2023/11/27 12:50:23;;;;;;;8.30;5.53;;;2.90;99.90;;;;;;5050791;28;20041;-76
2023/11/27 12:52:50;;;;;;;9.85;6.28;;;2.90;99.90;;;;;;5051050;28;20413;-76
2023/11/27 12:55:16;;;;;;;11.80;5.20;;;3.00;99.90;;;;;;5053432;28;20021;-76
2023/11/27 12:57:42;;;;;;;;;;;3.00;99.90;;;;;;5052481;28;20040;-75
2023/11/27 13:00:08;;;;;;;8.52;5.13;;;2.90;99.90;;;;;;5052933;28;19958;-76
2023/11/27 13:02:42;;;;;;;;;;;2.90;99.90;;;;;;5052715;28;20029;-74
2023/11/27 13:05:12;;;;;;;9.00;5.32;;;2.90;99.90;;;;;;5052539;28;19909;-75
2023/11/27 13:07:41;;;;;;;8.35;5.45;;;2.90;99.90;;;;;;5052294;28;20041;-76
2023/11/27 13:10:11;;;;;;;8.55;5.78;;;2.90;99.90;;;;;;5052588;28;20017;-74
2023/11/27 13:12:47;;;;;;;9.95;5.63;;;2.90;99.90;;;;;;5051896;28;20512;-75